首页
METAR-TAF:

METAR-TAF

机场 :

拉紹德封, 瑞士

纬度: 47-05-03N, 经度: 006-47-37E, 海拔: 1027米

当前天气观测

该预报发布于24分钟前的13:20 UTC
风速4节,风向,在西北东北之间变化
温度 14°C
湿度 63%
气压 1019 hPa
能见度10公里或以上
散云层高于2900英尺
多云层高于4800英尺

METAR: LSGC 041320Z 01004KT 320V050 9999 SCT029 BKN048 14/07 Q1019

时间: 15:44 (13:44 UTC)

预报

该预报发布于2小时和19分钟前的11:25 UTC
预报有效从04日的 12点(UTC)到 04日的 21点(UTC)
风速7节,风向东转东北
能见度10公里或以上
散云层高于1500英尺
多云层高于2500英尺

TAF: LSGC 041125Z 0412/0421 06007KT 9999 SCT015 BKN025

超过4000个机场的气象观测和天气预报(METAR&TAF报告)。

可查询的气象台以黄色和红色小点在地图上表示。

将鼠标移到小点上方,可查看气象台名称。

然后点击查看天气观测和预报。

如需切换地图:点击带黑十字的绿色按钮放大地图;点击带横线的绿色按钮缩小地图;或者点击绿色箭头查看邻近地区的地图。


METAR-TAF: